This is the latest recevied weather packets stored in our database for station/object WB5LFS-1. If no packets are shown the sender has not sent any weather packets the latest 1 day(s).
| Time | Temp. | Humidity | Pressure | Rain* | Wind** | Luminosity | Snow |
|---|---|---|---|---|---|---|---|
| 1836274266 | 20.56° C | 95% | 1017.9 hPa | 0 mm | 0 m/s | - | - |
| 1836274116 | 20° C | 95% | 1017.9 hPa | 0 mm | 0 m/s | - | - |
| 1778031708 | 21.67° C | 60% | 1013.4 hPa | 0 mm | 0 m/s | - | - |
| 1778030808 | 21.67° C | 60% | 1013.3 hPa | 0 mm | 0 m/s | - | - |
| 1778029908 | 22.22° C | 59% | 1013.2 hPa | 0 mm | 0 m/s | - | - |
| 1778029008 | 22.22° C | 58% | 1013 hPa | 0 mm | 0 m/s | - | - |
| 1778028108 | 22.78° C | 56% | 1012.7 hPa | 0 mm | 0 m/s | - | - |
| 1778027208 | 22.78° C | 55% | 1012.5 hPa | 0 mm | 0 m/s | - | - |
| 1778026308 | 23.33° C | 53% | 1012.5 hPa | 0 mm | 0 m/s | - | - |
| 1778025408 | 23.33° C | 52% | 1012.5 hPa | 0 mm | 0 m/s | - | - |
| 1778024508 | 23.89° C | 51% | 1012.4 hPa | 0 mm | 0 m/s | - | - |
| 1778023608 | 24.44° C | 49% | 1012.3 hPa | 0 mm | 0 m/s | - | - |
| 1778022708 | 25° C | 48% | 1012.4 hPa | 0 mm | 0 m/s | - | - |
| 1778021808 | 25.56° C | 45% | 1012.3 hPa | 0 mm | 0 m/s | - | - |
| 1778020908 | 26.11° C | 44% | 1012.2 hPa | 0 mm | 0 m/s | - | - |
| 1778020008 | 25.56° C | 43% | 1012.2 hPa | 0 mm | 0 m/s | - | - |
| 1778019108 | 26.11° C | 41% | 1012.3 hPa | 0 mm | 0 m/s | - | - |
| 1778018208 | 26.67° C | 41% | 1012.2 hPa | 0 mm | 0 m/s | - | - |
| 1778017308 | 27.22° C | 36% | 1012.3 hPa | 0 mm | 0.45 m/s, 311° | - | - |
| 1778016408 | 27.22° C | 37% | 1012.2 hPa | 0 mm | 0.45 m/s, 202° | - | - |
| 1778015508 | 27.78° C | 37% | 1012.1 hPa | 0 mm | 0 m/s | - | - |
| 1778014608 | 28.33° C | 34% | 1012.1 hPa | 0 mm | 0.45 m/s, 110° | - | - |
| 1778013708 | 28.89° C | 35% | 1012 hPa | 0 mm | 0.45 m/s, 185° | - | - |
| 1778012808 | 28.33° C | 34% | 1012.1 hPa | 0 mm | 0.45 m/s, 166° | - | - |
| 1778011908 | 28.33° C | 35% | 1012.3 hPa | 0 mm | 0.45 m/s, 112° | - | - |
* Rain latest hour (hover to see other rain measurements)
** Current wind speed in m/s (hover to see current wind gust speed)